sensor_id;sensor_type;location;lat;lon;timestamp;temperature;humidity
54788;DHT22;59598;48.112;16.280;2023-02-28T00:02:19;0.00;99.90
54788;DHT22;59598;48.112;16.280;2023-02-28T00:04:51;0.00;99.90
54788;DHT22;59598;48.112;16.280;2023-02-28T00:07:32;-0.10;99.90
54788;DHT22;59598;48.112;16.280;2023-02-28T00:10:05;-0.20;99.90
54788;DHT22;59598;48.112;16.280;2023-02-28T00:12:43;-0.20;99.90
54788;DHT22;59598;48.112;16.280;2023-02-28T00:15:17;-0.20;99.90
54788;DHT22;59598;48.112;16.280;2023-02-28T00:17:49;-0.30;99.90
54788;DHT22;59598;48.112;16.280;2023-02-28T00:20:27;-0.30;99.90
54788;DHT22;59598;48.112;16.280;2023-02-28T00:23:03;-0.30;99.90
54788;DHT22;59598;48.112;16.280;2023-02-28T00:25:35;-0.30;99.90
54788;DHT22;59598;48.112;16.280;2023-02-28T00:28:06;-0.40;99.90
54788;DHT22;59598;48.112;16.280;2023-02-28T00:30:41;-0.40;99.90
54788;DHT22;59598;48.112;16.280;2023-02-28T00:33:13;-0.40;99.90
54788;DHT22;59598;48.112;16.280;2023-02-28T00:35:50;-0.40;99.90
54788;DHT22;59598;48.112;16.280;2023-02-28T00:38:24;-0.40;99.90
54788;DHT22;59598;48.112;16.280;2023-02-28T00:40:58;-0.40;99.90
54788;DHT22;59598;48.112;16.280;2023-02-28T00:43:39;-0.40;99.90
54788;DHT22;59598;48.112;16.280;2023-02-28T00:46:16;-0.40;99.90
54788;DHT22;59598;48.112;16.280;2023-02-28T00:48:47;-0.30;99.90
54788;DHT22;59598;48.112;16.280;2023-02-28T00:51:19;-0.30;99.90
54788;DHT22;59598;48.112;16.280;2023-02-28T00:53:50;-0.30;99.90
54788;DHT22;59598;48.112;16.280;2023-02-28T00:56:30;-0.30;99.90
54788;DHT22;59598;48.112;16.280;2023-02-28T00:59:01;-0.20;99.90
54788;DHT22;59598;48.112;16.280;2023-02-28T01:01:36;-0.30;99.90
54788;DHT22;59598;48.112;16.280;2023-02-28T01:04:07;-0.20;99.90
54788;DHT22;59598;48.112;16.280;2023-02-28T01:06:41;-0.20;99.90
54788;DHT22;59598;48.112;16.280;2023-02-28T01:09:12;-0.10;99.90
54788;DHT22;59598;48.112;16.280;2023-02-28T01:11:44;-0.10;99.90
54788;DHT22;59598;48.112;16.280;2023-02-28T01:14:16;-0.10;99.90
54788;DHT22;59598;48.112;16.280;2023-02-28T01:16:53;0.00;99.90
54788;DHT22;59598;48.112;16.280;2023-02-28T01:19:32;0.10;99.90
54788;DHT22;59598;48.112;16.280;2023-02-28T01:22:08;0.20;99.90
54788;DHT22;59598;48.112;16.280;2023-02-28T01:24:40;0.20;99.90
54788;DHT22;59598;48.112;16.280;2023-02-28T01:27:11;0.30;99.90
54788;DHT22;59598;48.112;16.280;2023-02-28T01:29:46;0.20;99.90
54788;DHT22;59598;48.112;16.280;2023-02-28T01:32:23;0.20;99.90
54788;DHT22;59598;48.112;16.280;2023-02-28T01:34:55;0.30;99.90
54788;DHT22;59598;48.112;16.280;2023-02-28T01:37:27;0.30;99.90
54788;DHT22;59598;48.112;16.280;2023-02-28T01:40:04;0.30;99.90
54788;DHT22;59598;48.112;16.280;2023-02-28T01:42:39;0.30;99.90
54788;DHT22;59598;48.112;16.280;2023-02-28T01:45:26;0.40;99.90
54788;DHT22;59598;48.112;16.280;2023-02-28T01:48:06;0.50;99.90
54788;DHT22;59598;48.112;16.280;2023-02-28T01:50:42;0.50;99.90
54788;DHT22;59598;48.112;16.280;2023-02-28T01:53:19;0.60;99.90
54788;DHT22;59598;48.112;16.280;2023-02-28T01:55:56;0.60;99.90
54788;DHT22;59598;48.112;16.280;2023-02-28T01:58:30;0.70;99.90
54788;DHT22;59598;48.112;16.280;2023-02-28T02:01:02;0.70;99.90
54788;DHT22;59598;48.112;16.280;2023-02-28T02:03:36;0.80;99.90
54788;DHT22;59598;48.112;16.280;2023-02-28T02:06:08;0.80;99.90
54788;DHT22;59598;48.112;16.280;2023-02-28T02:08:46;0.80;99.90
54788;DHT22;59598;48.112;16.280;2023-02-28T02:11:20;0.80;99.90
54788;DHT22;59598;48.112;16.280;2023-02-28T02:14:09;0.90;99.90
54788;DHT22;59598;48.112;16.280;2023-02-28T02:17:09;1.00;99.90
54788;DHT22;59598;48.112;16.280;2023-02-28T02:25:58;0.70;99.90
54788;DHT22;59598;48.112;16.280;2023-02-28T02:37:48;0.50;99.90
54788;DHT22;59598;48.112;16.280;2023-02-28T02:40:56;0.50;99.90
54788;DHT22;59598;48.112;16.280;2023-02-28T02:46:38;0.50;99.90
54788;DHT22;59598;48.112;16.280;2023-02-28T02:49:35;0.50;99.90
54788;DHT22;59598;48.112;16.280;2023-02-28T02:52:12;0.30;99.90
54788;DHT22;59598;48.112;16.280;2023-02-28T02:54:48;0.20;99.90
54788;DHT22;59598;48.112;16.280;2023-02-28T02:57:32;0.10;99.90
54788;DHT22;59598;48.112;16.280;2023-02-28T03:00:07;0.10;99.90
54788;DHT22;59598;48.112;16.280;2023-02-28T03:02:42;-0.10;99.90
54788;DHT22;59598;48.112;16.280;2023-02-28T03:05:21;-0.20;99.90
54788;DHT22;59598;48.112;16.280;2023-02-28T03:08:03;-0.30;99.90
54788;DHT22;59598;48.112;16.280;2023-02-28T03:10:40;-0.40;99.90
54788;DHT22;59598;48.112;16.280;2023-02-28T03:30:39;-0.70;99.90
54788;DHT22;59598;48.112;16.280;2023-02-28T03:33:18;-0.80;99.90
54788;DHT22;59598;48.112;16.280;2023-02-28T03:36:16;-0.90;99.90
54788;DHT22;59598;48.112;16.280;2023-02-28T03:38:54;-1.00;99.90
54788;DHT22;59598;48.112;16.280;2023-02-28T03:41:35;-1.00;99.90
54788;DHT22;59598;48.112;16.280;2023-02-28T03:44:33;-1.00;99.90
54788;DHT22;59598;48.112;16.280;2023-02-28T03:50:23;-1.00;99.90
54788;DHT22;59598;48.112;16.280;2023-02-28T03:53:16;-0.90;99.90
54788;DHT22;59598;48.112;16.280;2023-02-28T03:56:32;-0.90;99.90
54788;DHT22;59598;48.112;16.280;2023-02-28T04:02:07;-0.90;99.90
54788;DHT22;59598;48.112;16.280;2023-02-28T04:04:40;-1.00;99.90
54788;DHT22;59598;48.112;16.280;2023-02-28T04:07:22;-0.90;99.90
54788;DHT22;59598;48.112;16.280;2023-02-28T04:09:53;-0.90;99.90
54788;DHT22;59598;48.112;16.280;2023-02-28T04:12:25;-0.80;99.90
54788;DHT22;59598;48.112;16.280;2023-02-28T04:14:58;-0.80;99.90
54788;DHT22;59598;48.112;16.280;2023-02-28T04:17:29;-0.60;99.90
54788;DHT22;59598;48.112;16.280;2023-02-28T04:20:03;-0.50;99.90
54788;DHT22;59598;48.112;16.280;2023-02-28T04:22:47;-0.50;99.90
54788;DHT22;59598;48.112;16.280;2023-02-28T04:25:19;-0.50;99.90
54788;DHT22;59598;48.112;16.280;2023-02-28T04:27:53;-0.50;99.90
54788;DHT22;59598;48.112;16.280;2023-02-28T04:30:27;-0.40;99.90
54788;DHT22;59598;48.112;16.280;2023-02-28T04:32:59;-0.30;99.90
54788;DHT22;59598;48.112;16.280;2023-02-28T04:35:36;-0.30;99.90
54788;DHT22;59598;48.112;16.280;2023-02-28T04:38:13;-0.20;99.90
54788;DHT22;59598;48.112;16.280;2023-02-28T04:40:50;-0.20;99.90
54788;DHT22;59598;48.112;16.280;2023-02-28T04:43:21;-0.20;99.90
54788;DHT22;59598;48.112;16.280;2023-02-28T04:45:56;-0.10;99.90
54788;DHT22;59598;48.112;16.280;2023-02-28T04:48:31;-0.10;99.90
54788;DHT22;59598;48.112;16.280;2023-02-28T04:51:08;-0.20;99.90
54788;DHT22;59598;48.112;16.280;2023-02-28T04:53:47;-0.20;99.90
54788;DHT22;59598;48.112;16.280;2023-02-28T04:56:23;-0.20;99.90
54788;DHT22;59598;48.112;16.280;2023-02-28T04:58:56;-0.20;99.90
54788;DHT22;59598;48.112;16.280;2023-02-28T05:01:32;-0.20;99.90
54788;DHT22;59598;48.112;16.280;2023-02-28T05:04:04;-0.30;99.90
54788;DHT22;59598;48.112;16.280;2023-02-28T05:06:36;-0.40;99.90
54788;DHT22;59598;48.112;16.280;2023-02-28T05:09:08;-0.50;99.90
54788;DHT22;59598;48.112;16.280;2023-02-28T05:11:42;-0.60;99.90
54788;DHT22;59598;48.112;16.280;2023-02-28T05:14:14;-0.70;99.90
54788;DHT22;59598;48.112;16.280;2023-02-28T05:16:48;-0.80;99.90
54788;DHT22;59598;48.112;16.280;2023-02-28T05:19:25;-0.80;99.90
54788;DHT22;59598;48.112;16.280;2023-02-28T05:21:59;-0.90;99.90
54788;DHT22;59598;48.112;16.280;2023-02-28T05:24:31;-1.00;99.90
54788;DHT22;59598;48.112;16.280;2023-02-28T05:27:05;-1.00;99.90
54788;DHT22;59598;48.112;16.280;2023-02-28T05:29:39;-1.10;99.90
54788;DHT22;59598;48.112;16.280;2023-02-28T05:32:15;-1.10;99.90
54788;DHT22;59598;48.112;16.280;2023-02-28T05:34:48;-1.20;99.90
54788;DHT22;59598;48.112;16.280;2023-02-28T05:37:20;-1.20;99.90
54788;DHT22;59598;48.112;16.280;2023-02-28T05:39:51;-1.30;99.90
54788;DHT22;59598;48.112;16.280;2023-02-28T05:42:23;-1.30;99.90
54788;DHT22;59598;48.112;16.280;2023-02-28T05:44:54;-1.30;99.90
54788;DHT22;59598;48.112;16.280;2023-02-28T05:47:30;-1.40;99.90
54788;DHT22;59598;48.112;16.280;2023-02-28T05:50:07;-1.30;99.90
54788;DHT22;59598;48.112;16.280;2023-02-28T05:52:43;-1.30;99.90
54788;DHT22;59598;48.112;16.280;2023-02-28T05:55:23;-1.30;99.90
54788;DHT22;59598;48.112;16.280;2023-02-28T05:57:55;-1.30;99.90
54788;DHT22;59598;48.112;16.280;2023-02-28T06:00:28;-1.30;99.90
54788;DHT22;59598;48.112;16.280;2023-02-28T06:03:02;-1.30;99.90
54788;DHT22;59598;48.112;16.280;2023-02-28T06:05:34;-1.30;99.90
54788;DHT22;59598;48.112;16.280;2023-02-28T06:08:09;-1.20;99.90
54788;DHT22;59598;48.112;16.280;2023-02-28T06:10:40;-1.20;99.90
54788;DHT22;59598;48.112;16.280;2023-02-28T06:13:12;-1.10;99.90
54788;DHT22;59598;48.112;16.280;2023-02-28T06:15:52;-1.20;99.90
54788;DHT22;59598;48.112;16.280;2023-02-28T06:18:25;-1.10;99.90
54788;DHT22;59598;48.112;16.280;2023-02-28T06:20:57;-1.10;99.90
54788;DHT22;59598;48.112;16.280;2023-02-28T06:23:28;-1.00;99.90
54788;DHT22;59598;48.112;16.280;2023-02-28T06:26:03;-1.00;99.90
54788;DHT22;59598;48.112;16.280;2023-02-28T06:28:34;-1.00;99.90
54788;DHT22;59598;48.112;16.280;2023-02-28T06:31:11;-1.00;99.90
54788;DHT22;59598;48.112;16.280;2023-02-28T06:33:45;-0.90;99.90
54788;DHT22;59598;48.112;16.280;2023-02-28T06:36:21;-0.90;99.90
54788;DHT22;59598;48.112;16.280;2023-02-28T06:38:52;-0.80;99.90
54788;DHT22;59598;48.112;16.280;2023-02-28T06:41:27;-0.80;99.90
54788;DHT22;59598;48.112;16.280;2023-02-28T06:43:58;-0.70;99.90
54788;DHT22;59598;48.112;16.280;2023-02-28T06:46:32;-0.60;99.90
54788;DHT22;59598;48.112;16.280;2023-02-28T06:49:04;-0.60;99.90
54788;DHT22;59598;48.112;16.280;2023-02-28T06:51:40;-0.40;99.90
54788;DHT22;59598;48.112;16.280;2023-02-28T06:54:14;-0.40;99.90
54788;DHT22;59598;48.112;16.280;2023-02-28T06:56:48;-0.40;99.90
54788;DHT22;59598;48.112;16.280;2023-02-28T06:59:20;-0.30;99.90
54788;DHT22;59598;48.112;16.280;2023-02-28T07:01:54;-0.30;99.90
54788;DHT22;59598;48.112;16.280;2023-02-28T07:04:26;-0.20;99.90
54788;DHT22;59598;48.112;16.280;2023-02-28T07:06:59;-0.10;99.90
54788;DHT22;59598;48.112;16.280;2023-02-28T07:09:33;0.00;99.90
54788;DHT22;59598;48.112;16.280;2023-02-28T07:12:05;0.20;99.90
54788;DHT22;59598;48.112;16.280;2023-02-28T07:14:37;0.40;99.90
54788;DHT22;59598;48.112;16.280;2023-02-28T07:17:11;0.50;99.90
54788;DHT22;59598;48.112;16.280;2023-02-28T07:19:45;0.70;99.90
54788;DHT22;59598;48.112;16.280;2023-02-28T07:22:16;0.90;99.90
54788;DHT22;59598;48.112;16.280;2023-02-28T07:24:50;1.00;99.90
54788;DHT22;59598;48.112;16.280;2023-02-28T07:27:30;1.20;99.90
54788;DHT22;59598;48.112;16.280;2023-02-28T07:30:01;1.40;99.90
54788;DHT22;59598;48.112;16.280;2023-02-28T07:32:37;1.60;99.90
54788;DHT22;59598;48.112;16.280;2023-02-28T07:35:11;1.60;99.90
54788;DHT22;59598;48.112;16.280;2023-02-28T07:37:46;1.20;99.90
54788;DHT22;59598;48.112;16.280;2023-02-28T07:40:18;1.30;99.90
54788;DHT22;59598;48.112;16.280;2023-02-28T07:42:49;1.30;99.90
54788;DHT22;59598;48.112;16.280;2023-02-28T07:45:27;1.30;99.90
54788;DHT22;59598;48.112;16.280;2023-02-28T07:48:08;1.50;99.90
54788;DHT22;59598;48.112;16.280;2023-02-28T07:50:41;1.50;99.90
54788;DHT22;59598;48.112;16.280;2023-02-28T07:53:27;1.50;99.90
54788;DHT22;59598;48.112;16.280;2023-02-28T07:56:03;1.70;99.90
54788;DHT22;59598;48.112;16.280;2023-02-28T07:58:37;1.90;99.90
54788;DHT22;59598;48.112;16.280;2023-02-28T08:01:12;2.10;99.90
54788;DHT22;59598;48.112;16.280;2023-02-28T08:03:45;2.00;99.90
54788;DHT22;59598;48.112;16.280;2023-02-28T08:06:20;2.20;99.90
54788;DHT22;59598;48.112;16.280;2023-02-28T08:08:53;2.40;99.90
54788;DHT22;59598;48.112;16.280;2023-02-28T08:11:29;2.50;99.90
54788;DHT22;59598;48.112;16.280;2023-02-28T08:14:01;2.80;99.90
54788;DHT22;59598;48.112;16.280;2023-02-28T08:16:35;2.90;99.90
54788;DHT22;59598;48.112;16.280;2023-02-28T08:19:08;3.30;99.90
54788;DHT22;59598;48.112;16.280;2023-02-28T08:21:40;3.10;99.90
54788;DHT22;59598;48.112;16.280;2023-02-28T08:24:15;2.90;99.90
54788;DHT22;59598;48.112;16.280;2023-02-28T08:26:50;2.90;99.90
54788;DHT22;59598;48.112;16.280;2023-02-28T08:29:23;2.80;99.90
54788;DHT22;59598;48.112;16.280;2023-02-28T08:31:54;2.80;99.90
54788;DHT22;59598;48.112;16.280;2023-02-28T08:34:28;3.20;99.90
54788;DHT22;59598;48.112;16.280;2023-02-28T08:36:59;3.40;99.90
54788;DHT22;59598;48.112;16.280;2023-02-28T08:39:35;3.60;99.90
54788;DHT22;59598;48.112;16.280;2023-02-28T08:42:15;4.00;99.90
54788;DHT22;59598;48.112;16.280;2023-02-28T08:44:46;4.30;99.90
54788;DHT22;59598;48.112;16.280;2023-02-28T08:47:21;4.30;99.90
54788;DHT22;59598;48.112;16.280;2023-02-28T08:49:54;4.10;99.90
54788;DHT22;59598;48.112;16.280;2023-02-28T08:52:26;4.40;99.90
54788;DHT22;59598;48.112;16.280;2023-02-28T08:54:57;4.60;99.90
54788;DHT22;59598;48.112;16.280;2023-02-28T08:57:29;4.20;99.90
54788;DHT22;59598;48.112;16.280;2023-02-28T09:00:03;4.50;99.90
54788;DHT22;59598;48.112;16.280;2023-02-28T09:02:41;5.00;99.90
54788;DHT22;59598;48.112;16.280;2023-02-28T09:05:15;5.30;99.90
54788;DHT22;59598;48.112;16.280;2023-02-28T09:07:50;5.40;99.90
54788;DHT22;59598;48.112;16.280;2023-02-28T09:10:21;5.70;99.90
54788;DHT22;59598;48.112;16.280;2023-02-28T09:12:58;6.20;99.90
54788;DHT22;59598;48.112;16.280;2023-02-28T09:15:29;5.80;99.90
54788;DHT22;59598;48.112;16.280;2023-02-28T09:18:03;5.70;99.90
54788;DHT22;59598;48.112;16.280;2023-02-28T09:20:40;6.10;99.90
54788;DHT22;59598;48.112;16.280;2023-02-28T09:23:12;6.40;99.90
54788;DHT22;59598;48.112;16.280;2023-02-28T09:25:52;6.60;99.90
54788;DHT22;59598;48.112;16.280;2023-02-28T09:28:25;6.60;99.90
54788;DHT22;59598;48.112;16.280;2023-02-28T09:30:57;5.90;99.90
54788;DHT22;59598;48.112;16.280;2023-02-28T09:33:32;6.20;99.90
54788;DHT22;59598;48.112;16.280;2023-02-28T09:36:05;6.50;99.90
54788;DHT22;59598;48.112;16.280;2023-02-28T09:38:39;6.80;99.90
54788;DHT22;59598;48.112;16.280;2023-02-28T09:41:16;7.20;99.90
54788;DHT22;59598;48.112;16.280;2023-02-28T09:43:57;6.80;99.90
54788;DHT22;59598;48.112;16.280;2023-02-28T09:46:38;6.70;99.90
54788;DHT22;59598;48.112;16.280;2023-02-28T09:49:25;6.70;99.90
54788;DHT22;59598;48.112;16.280;2023-02-28T09:52:30;6.50;99.90
54788;DHT22;59598;48.112;16.280;2023-02-28T09:58:02;6.30;99.90
54788;DHT22;59598;48.112;16.280;2023-02-28T10:00:40;6.70;99.90
54788;DHT22;59598;48.112;16.280;2023-02-28T10:03:23;6.70;99.90
54788;DHT22;59598;48.112;16.280;2023-02-28T10:06:02;7.10;99.90
54788;DHT22;59598;48.112;16.280;2023-02-28T10:08:49;7.50;99.90
54788;DHT22;59598;48.112;16.280;2023-02-28T10:11:26;8.20;99.90
54788;DHT22;59598;48.112;16.280;2023-02-28T10:14:00;8.80;99.90
54788;DHT22;59598;48.112;16.280;2023-02-28T10:16:50;9.30;99.90
54788;DHT22;59598;48.112;16.280;2023-02-28T10:22:50;8.80;99.90
54788;DHT22;59598;48.112;16.280;2023-02-28T10:25:42;8.80;99.90
54788;DHT22;59598;48.112;16.280;2023-02-28T10:28:41;8.10;99.90
54788;DHT22;59598;48.112;16.280;2023-02-28T10:31:19;8.30;99.90
54788;DHT22;59598;48.112;16.280;2023-02-28T10:33:53;9.30;99.90
54788;DHT22;59598;48.112;16.280;2023-02-28T10:36:28;9.50;99.90
54788;DHT22;59598;48.112;16.280;2023-02-28T10:39:00;9.80;99.90
54788;DHT22;59598;48.112;16.280;2023-02-28T10:41:38;10.10;99.90
54788;DHT22;59598;48.112;16.280;2023-02-28T10:44:26;10.20;99.90
54788;DHT22;59598;48.112;16.280;2023-02-28T10:47:02;10.40;99.90
54788;DHT22;59598;48.112;16.280;2023-02-28T10:49:34;10.80;99.90
54788;DHT22;59598;48.112;16.280;2023-02-28T10:52:32;10.90;99.90
54788;DHT22;59598;48.112;16.280;2023-02-28T10:55:23;10.80;99.90
54788;DHT22;59598;48.112;16.280;2023-02-28T10:57:59;10.80;99.90
54788;DHT22;59598;48.112;16.280;2023-02-28T11:00:38;10.80;99.90
54788;DHT22;59598;48.112;16.280;2023-02-28T11:03:30;11.50;99.90
54788;DHT22;59598;48.112;16.280;2023-02-28T11:06:18;11.40;99.90
54788;DHT22;59598;48.112;16.280;2023-02-28T11:08:56;11.50;99.90
54788;DHT22;59598;48.112;16.280;2023-02-28T11:11:41;10.20;99.90
54788;DHT22;59598;48.112;16.280;2023-02-28T11:14:27;9.40;99.90
54788;DHT22;59598;48.112;16.280;2023-02-28T11:17:26;10.40;99.90
54788;DHT22;59598;48.112;16.280;2023-02-28T11:20:13;10.10;99.90
54788;DHT22;59598;48.112;16.280;2023-02-28T11:22:54;10.00;99.90
54788;DHT22;59598;48.112;16.280;2023-02-28T11:25:34;8.50;99.90
54788;DHT22;59598;48.112;16.280;2023-02-28T11:33:54;8.60;99.90
54788;DHT22;59598;48.112;16.280;2023-02-28T11:36:31;8.80;99.90
54788;DHT22;59598;48.112;16.280;2023-02-28T11:39:10;8.80;99.90
54788;DHT22;59598;48.112;16.280;2023-02-28T11:50:48;7.30;99.90
54788;DHT22;59598;48.112;16.280;2023-02-28T11:54:14;6.70;99.90
54788;DHT22;59598;48.112;16.280;2023-02-28T11:57:09;6.60;99.90
54788;DHT22;59598;48.112;16.280;2023-02-28T12:03:11;6.40;99.90
54788;DHT22;59598;48.112;16.280;2023-02-28T12:05:51;6.40;99.90
54788;DHT22;59598;48.112;16.280;2023-02-28T12:20:39;7.10;99.90
54788;DHT22;59598;48.112;16.280;2023-02-28T12:26:36;7.40;99.90
54788;DHT22;59598;48.112;16.280;2023-02-28T12:29:19;7.30;99.90
54788;DHT22;59598;48.112;16.280;2023-02-28T12:32:08;7.30;99.90
54788;DHT22;59598;48.112;16.280;2023-02-28T12:40:48;10.60;99.90
54788;DHT22;59598;48.112;16.280;2023-02-28T12:43:31;10.10;99.90
54788;DHT22;59598;48.112;16.280;2023-02-28T12:46:10;10.50;99.90
54788;DHT22;59598;48.112;16.280;2023-02-28T12:48:52;11.50;99.90
54788;DHT22;59598;48.112;16.280;2023-02-28T12:51:28;11.50;99.90
54788;DHT22;59598;48.112;16.280;2023-02-28T12:57:14;10.80;99.90
54788;DHT22;59598;48.112;16.280;2023-02-28T12:59:58;11.90;99.90
54788;DHT22;59598;48.112;16.280;2023-02-28T13:03:24;12.50;99.90
54788;DHT22;59598;48.112;16.280;2023-02-28T13:09:15;13.90;99.90
54788;DHT22;59598;48.112;16.280;2023-02-28T13:11:58;14.30;99.90
54788;DHT22;59598;48.112;16.280;2023-02-28T13:19:57;12.30;99.90
54788;DHT22;59598;48.112;16.280;2023-02-28T13:27:54;12.40;99.90
54788;DHT22;59598;48.112;16.280;2023-02-28T13:38:52;9.50;99.90
54788;DHT22;59598;48.112;16.280;2023-02-28T13:44:22;9.20;99.90
54788;DHT22;59598;48.112;16.280;2023-02-28T13:49:33;9.40;99.90
54788;DHT22;59598;48.112;16.280;2023-02-28T14:01:30;7.20;99.90
54788;DHT22;59598;48.112;16.280;2023-02-28T14:07:06;7.50;99.90
54788;DHT22;59598;48.112;16.280;2023-02-28T14:09:47;7.20;99.90
54788;DHT22;59598;48.112;16.280;2023-02-28T14:12:54;6.80;99.90
54788;DHT22;59598;48.112;16.280;2023-02-28T14:18:37;7.60;99.90
54788;DHT22;59598;48.112;16.280;2023-02-28T14:21:24;9.30;99.90
54788;DHT22;59598;48.112;16.280;2023-02-28T14:24:20;10.20;99.90
54788;DHT22;59598;48.112;16.280;2023-02-28T14:27:04;10.40;99.90
54788;DHT22;59598;48.112;16.280;2023-02-28T14:30:26;11.10;99.90
54788;DHT22;59598;48.112;16.280;2023-02-28T14:36:23;12.60;99.90
54788;DHT22;59598;48.112;16.280;2023-02-28T14:39:00;12.50;99.90
54788;DHT22;59598;48.112;16.280;2023-02-28T14:41:42;11.60;99.90
54788;DHT22;59598;48.112;16.280;2023-02-28T14:44:26;11.40;99.90
54788;DHT22;59598;48.112;16.280;2023-02-28T14:47:02;11.10;99.90
54788;DHT22;59598;48.112;16.280;2023-02-28T14:49:44;10.70;99.90
54788;DHT22;59598;48.112;16.280;2023-02-28T14:52:27;10.80;99.90
54788;DHT22;59598;48.112;16.280;2023-02-28T14:55:04;10.10;99.90
54788;DHT22;59598;48.112;16.280;2023-02-28T14:57:51;9.80;99.90
54788;DHT22;59598;48.112;16.280;2023-02-28T15:00:31;9.80;99.90
54788;DHT22;59598;48.112;16.280;2023-02-28T15:03:44;9.30;99.90
54788;DHT22;59598;48.112;16.280;2023-02-28T15:06:17;9.50;99.90
54788;DHT22;59598;48.112;16.280;2023-02-28T15:09:16;10.10;99.90
54788;DHT22;59598;48.112;16.280;2023-02-28T15:11:50;10.00;99.90
54788;DHT22;59598;48.112;16.280;2023-02-28T15:14:21;9.10;99.90
54788;DHT22;59598;48.112;16.280;2023-02-28T15:16:59;8.60;99.90
54788;DHT22;59598;48.112;16.280;2023-02-28T15:19:36;8.30;99.90
54788;DHT22;59598;48.112;16.280;2023-02-28T15:22:16;7.90;99.90
54788;DHT22;59598;48.112;16.280;2023-02-28T15:24:51;7.50;99.90
54788;DHT22;59598;48.112;16.280;2023-02-28T15:27:31;7.20;99.90
54788;DHT22;59598;48.112;16.280;2023-02-28T15:30:07;6.90;99.90
54788;DHT22;59598;48.112;16.280;2023-02-28T15:35:43;6.00;99.90
54788;DHT22;59598;48.112;16.280;2023-02-28T15:38:35;5.90;99.90
54788;DHT22;59598;48.112;16.280;2023-02-28T15:41:25;5.80;99.90
54788;DHT22;59598;48.112;16.280;2023-02-28T15:44:27;5.70;99.90
54788;DHT22;59598;48.112;16.280;2023-02-28T15:47:03;5.60;99.90
54788;DHT22;59598;48.112;16.280;2023-02-28T15:52:44;5.30;99.90
54788;DHT22;59598;48.112;16.280;2023-02-28T15:55:26;5.20;99.90
54788;DHT22;59598;48.112;16.280;2023-02-28T15:58:02;5.20;99.90
54788;DHT22;59598;48.112;16.280;2023-02-28T16:00:34;5.20;99.90
54788;DHT22;59598;48.112;16.280;2023-02-28T16:03:27;5.20;99.90
54788;DHT22;59598;48.112;16.280;2023-02-28T16:06:33;5.20;99.90
54788;DHT22;59598;48.112;16.280;2023-02-28T16:09:06;5.00;99.90
54788;DHT22;59598;48.112;16.280;2023-02-28T16:11:51;4.90;99.90
54788;DHT22;59598;48.112;16.280;2023-02-28T16:14:26;4.80;99.90
54788;DHT22;59598;48.112;16.280;2023-02-28T16:17:07;4.80;99.90
54788;DHT22;59598;48.112;16.280;2023-02-28T16:19:52;4.80;99.90
54788;DHT22;59598;48.112;16.280;2023-02-28T16:22:27;4.70;99.90
54788;DHT22;59598;48.112;16.280;2023-02-28T16:24:59;4.70;99.90
54788;DHT22;59598;48.112;16.280;2023-02-28T16:27:35;4.60;99.90
54788;DHT22;59598;48.112;16.280;2023-02-28T16:30:17;4.50;99.90
54788;DHT22;59598;48.112;16.280;2023-02-28T16:32:55;4.40;99.90
54788;DHT22;59598;48.112;16.280;2023-02-28T16:35:30;4.30;99.90
54788;DHT22;59598;48.112;16.280;2023-02-28T16:38:01;4.20;99.90
54788;DHT22;59598;48.112;16.280;2023-02-28T16:40:34;4.20;99.90
54788;DHT22;59598;48.112;16.280;2023-02-28T16:43:09;4.00;99.90
54788;DHT22;59598;48.112;16.280;2023-02-28T16:45:47;4.00;99.90
54788;DHT22;59598;48.112;16.280;2023-02-28T16:48:24;3.90;99.90
54788;DHT22;59598;48.112;16.280;2023-02-28T16:50:58;3.90;99.90
54788;DHT22;59598;48.112;16.280;2023-02-28T16:53:30;3.80;99.90
54788;DHT22;59598;48.112;16.280;2023-02-28T16:56:01;3.80;1.00
54788;DHT22;59598;48.112;16.280;2023-02-28T16:58:33;3.70;36.60
54788;DHT22;59598;48.112;16.280;2023-02-28T17:01:06;3.70;1.00
54788;DHT22;59598;48.112;16.280;2023-02-28T17:03:40;3.70;1.00
54788;DHT22;59598;48.112;16.280;2023-02-28T17:06:18;3.70;1.00
54788;DHT22;59598;48.112;16.280;2023-02-28T17:08:53;3.70;1.00
54788;DHT22;59598;48.112;16.280;2023-02-28T17:11:26;3.50;99.90
54788;DHT22;59598;48.112;16.280;2023-02-28T17:13:57;3.30;99.90
54788;DHT22;59598;48.112;16.280;2023-02-28T17:16:38;3.20;1.00
54788;DHT22;59598;48.112;16.280;2023-02-28T17:19:15;3.10;1.00
54788;DHT22;59598;48.112;16.280;2023-02-28T17:21:47;2.90;1.00
54788;DHT22;59598;48.112;16.280;2023-02-28T17:24:21;2.70;1.00
54788;DHT22;59598;48.112;16.280;2023-02-28T17:26:55;2.50;99.90
54788;DHT22;59598;48.112;16.280;2023-02-28T17:29:27;2.20;99.90
54788;DHT22;59598;48.112;16.280;2023-02-28T17:31:59;2.10;1.00
54788;DHT22;59598;48.112;16.280;2023-02-28T17:34:33;2.00;99.90
54788;DHT22;59598;48.112;16.280;2023-02-28T17:37:05;1.90;99.90
54788;DHT22;59598;48.112;16.280;2023-02-28T17:39:42;1.90;1.00
54788;DHT22;59598;48.112;16.280;2023-02-28T17:42:15;1.80;99.90
54788;DHT22;59598;48.112;16.280;2023-02-28T17:44:47;1.80;99.90
54788;DHT22;59598;48.112;16.280;2023-02-28T17:47:18;1.80;1.00
54788;DHT22;59598;48.112;16.280;2023-02-28T17:49:52;1.70;1.00
54788;DHT22;59598;48.112;16.280;2023-02-28T17:52:23;1.70;5.50
54788;DHT22;59598;48.112;16.280;2023-02-28T17:54:55;1.60;99.90
54788;DHT22;59598;48.112;16.280;2023-02-28T17:57:31;1.40;1.00
54788;DHT22;59598;48.112;16.280;2023-02-28T18:00:06;1.30;1.00
54788;DHT22;59598;48.112;16.280;2023-02-28T18:02:41;1.30;1.00
54788;DHT22;59598;48.112;16.280;2023-02-28T18:05:12;1.30;99.90
54788;DHT22;59598;48.112;16.280;2023-02-28T18:07:44;1.20;99.90
54788;DHT22;59598;48.112;16.280;2023-02-28T18:10:19;1.10;1.00
54788;DHT22;59598;48.112;16.280;2023-02-28T18:12:54;1.00;1.00
54788;DHT22;59598;48.112;16.280;2023-02-28T18:15:31;1.00;1.00
54788;DHT22;59598;48.112;16.280;2023-02-28T18:18:05;1.00;99.90
54788;DHT22;59598;48.112;16.280;2023-02-28T18:20:42;1.00;99.90
54788;DHT22;59598;48.112;16.280;2023-02-28T18:23:14;1.00;99.90
54788;DHT22;59598;48.112;16.280;2023-02-28T18:25:47;1.00;99.90
54788;DHT22;59598;48.112;16.280;2023-02-28T18:28:27;0.90;22.90
54788;DHT22;59598;48.112;16.280;2023-02-28T18:31:08;0.90;1.00
54788;DHT22;59598;48.112;16.280;2023-02-28T18:33:40;0.80;1.00
54788;DHT22;59598;48.112;16.280;2023-02-28T18:36:15;0.80;1.00
54788;DHT22;59598;48.112;16.280;2023-02-28T18:38:49;0.70;1.00
54788;DHT22;59598;48.112;16.280;2023-02-28T18:41:21;0.60;11.80
54788;DHT22;59598;48.112;16.280;2023-02-28T18:43:54;0.50;99.90
54788;DHT22;59598;48.112;16.280;2023-02-28T18:46:25;0.40;99.90
54788;DHT22;59598;48.112;16.280;2023-02-28T18:49:00;0.40;99.90
54788;DHT22;59598;48.112;16.280;2023-02-28T18:51:33;0.30;1.00
54788;DHT22;59598;48.112;16.280;2023-02-28T18:54:08;0.30;1.00